• Join FlightAware (Why Join?)
  • Login
  • US Flag 
Gobble Gobble! 
06:50AM EST


 

Airport Tracker/Info


-or-


 

Live Flight TrackerFlight Track Log ✈ UAL4550 ✈ 21-Apr-2013 ✈ KRSW - KIAH

Flight Track Log - Related Links

Times and Time Zones

All times are in EDT time to prevent confusion due to time zone crossing. See the UAL4550 flight status page for this flight to view local times or setup timezone preferences in your user account.

Time Position Orientation Groundspeed Altitude Reporting Facility
EDT Latitude Longitude Course Direction KTS MPH feet Rate Location/Type
04:38PM 26.6039 -81.6889 343° North 216 249 3,300  Level Miami Center
04:39PM 26.6664 -81.6961 354° North 242 278 5,100 2,220 Climbing Miami Center
04:40PM 26.9072 -81.7333 North  Level FlightAware Approximate
04:40PM 26.7411 -81.7086 352° North 260 299 7,800  Level Miami Center
04:41PM 27.0010 -81.7333 North  Level FlightAware Approximate
04:41PM 26.8203 -81.7164 355° North 266 306 10,200  Level Miami Center
04:42PM 27.0902 -81.7627 340° North  Level FlightAware Approximate
04:42PM 26.9031 -81.7317 351° North 288 331 11,300  Level Miami Center
04:43PM 27.1811 -81.7881 343° North  Level FlightAware Approximate
04:43PM 27.0031 -81.7450 353° North 322 371 12,500  Level Miami Center
04:44PM 27.1044 -81.7703 347° North 354 407 14,100 1,560 Climbing Miami Center
04:45PM 27.2056 -81.8050 343° North 373 429 15,700 1,500 Climbing Miami Center
04:46PM 27.3067 -81.8397 343° North 373 429 17,200 1,500 Climbing Miami Center
04:47PM 27.4078 -81.8722 344° North 378 435 18,800 1,380 Climbing Miami Center
04:48PM 27.5003 -81.9067 342° North 378 435 20,000 1,260 Climbing Miami Center
04:49PM 27.6033 -81.9439 342° North 383 441 21,400 1,620 Climbing Miami Center
04:50PM 27.7189 -81.9842 343° North 383 441 23,300 1,500 Climbing Miami Center
04:51PM 27.8242 -82.0125 347° North 383 441 24,500 960 Climbing Miami Center
04:53PM 28.0492 -82.0531 351° North 418 481 26,400 1,080 Climbing Jacksonville Center
04:54PM 28.1433 -82.1111 331° Northwest 391 450 27,900 1,560 Climbing Jacksonville Center
04:55PM 28.2314 -82.1694 330° Northwest 377 434 29,600 1,800 Climbing Jacksonville Center
04:56PM 28.3150 -82.2231 331° Northwest 364 419 31,500 1,800 Climbing Jacksonville Center
04:57PM 28.3947 -82.2744 330° Northwest 350 403 33,300 1,260 Climbing Jacksonville Center
04:58PM 28.4722 -82.3233 331° Northwest 327 376 34,100 840 Climbing Jacksonville Center
04:59PM 28.5494 -82.3750 330° Northwest 321 369 35,000 900 Climbing Jacksonville Center
05:00PM 28.6269 -82.4242 331° Northwest 315 362 35,900 480 Climbing Jacksonville Center
05:01PM 28.6958 -82.4642 333° Northwest 315 362 36,000  Climbing Jacksonville Center
05:02PM 28.7797 -82.5206 329° Northwest 320 368 36,000  Level Jacksonville Center
05:03PM 28.8528 -82.5914 320° Northwest 334 384 36,000  Level Jacksonville Center
05:04PM 28.9281 -82.6694 318° Northwest 352 405 36,000  Level Jacksonville Center
05:05PM 29.0075 -82.7500 318° Northwest 365 420 36,000  Level Jacksonville Center
05:06PM 29.0869 -82.8331 318° Northwest 376 433 36,000  Level Jacksonville Center
05:07PM 29.1706 -82.9186 318° Northwest 371 427 36,000  Level Jacksonville Center
05:08PM 29.2478 -82.9997 318° Northwest 371 427 36,000  Level Jacksonville Center
05:09PM 29.3247 -83.0808 317° Northwest 371 427 36,000  Level Jacksonville Center
05:10PM 29.4039 -83.1619 318° Northwest 371 427 36,000 -60 Level Jacksonville Center
05:11PM 29.4831 -83.2481 317° Northwest 371 427 35,900  Descending Jacksonville Center
05:12PM 29.5664 -83.3294 320° Northwest 383 441 36,000  Climbing Jacksonville Center
05:13PM 29.6494 -83.4183 317° Northwest 388 447 35,900  Descending Jacksonville Center
05:14PM 29.7222 -83.5072 313° West 388 447 36,000  Climbing Jacksonville Center
05:15PM 29.7633 -83.6175 293° West 382 440 36,000  Level Jacksonville Center
05:16PM 29.8044 -83.7281 293° West 371 427 36,000  Level Jacksonville Center
05:17PM 29.8433 -83.8383 292° West 376 433 36,000 -60 Level Jacksonville Center
05:18PM 29.8822 -83.9514 292° West 376 433 35,900  Descending Jacksonville Center
05:19PM 29.9331 -84.0861 294° West 376 433 36,000  Climbing Jacksonville Center
05:20PM 29.9697 -84.1969 291° West 376 433 36,000 -60 Level Jacksonville Center
05:21PM 30.0103 -84.3078 293° West 376 433 35,900  Descending Jacksonville Center
05:22PM 30.0486 -84.4211 291° West 376 433 36,000  Climbing Jacksonville Center
05:23PM 30.0911 -84.5322 294° West 376 433 36,000  Level Jacksonville Center
05:24PM 30.1292 -84.6433 292° West 376 433 36,000 -60 Level Jacksonville Center
05:25PM 30.1672 -84.7522 292° West 371 427 35,900  Descending Jacksonville Center
05:26PM 30.2053 -84.8633 292° West 371 427 36,000  Climbing Jacksonville Center
05:27PM 30.2453 -84.9700 293° West 371 427 36,000  Level Jacksonville Center
05:28PM 30.2833 -85.0817 292° West 371 427 36,000  Level Jacksonville Center
05:29PM 30.3208 -85.1906 292° West 371 427 36,000  Level Jacksonville Center
05:30PM 30.3586 -85.3000 292° West 371 427 36,000  Level Jacksonville Center
05:31PM 30.3942 -85.3994 293° West 371 427 36,000  Level Jacksonville Center
05:32PM 30.4297 -85.5089 291° West 371 427 36,000  Level Jacksonville Center
05:33PM 30.4692 -85.6183 293° West 371 427 36,000  Level Jacksonville Center
05:34PM 30.5042 -85.7278 290° West 371 427 36,000  Level Jacksonville Center
05:35PM 30.5436 -85.8375 293° West 371 427 36,000  Level Jacksonville Center
05:36PM 30.5808 -85.9425 292° West 371 427 36,000  Level Jacksonville Center
05:37PM 30.6156 -86.0522 290° West 371 427 36,000  Level Jacksonville Center
05:38PM 30.6358 -86.1614 282° West 366 421 36,000  Level Jacksonville Center
05:39PM 30.6308 -86.2722 267° West 344 396 36,000  Level Jacksonville Center
05:40PM 30.6239 -86.3808 266° West 349 402 36,000  Level Jacksonville Center
05:41PM 30.6164 -86.4986 266° West 349 402 36,000  Level Jacksonville Center
05:42PM 30.6069 -86.6069 264° West 349 402 36,000  Level Jacksonville Center
05:43PM 30.6036 -86.7203 268° West 349 402 36,000  Level Jacksonville Center
05:44PM 30.5939 -86.8308 264° West 349 402 36,000  Level Jacksonville Center
05:45PM 30.5856 -86.9681 266° West 349 402 36,000  Level Jacksonville Center
05:46PM 30.5792 -87.1003 267° West 349 402 36,000  Level Jacksonville Center
05:47PM 30.5689 -87.2158 264° West 349 402 36,000  Level Jacksonville Center
05:49PM 30.5547 -87.4347 266° West 355 409 36,000  Level Houston Center
05:50PM 30.5469 -87.5492 266° West 358 412 36,000  Level Houston Center
05:51PM 30.5394 -87.6664 266° West 363 418 36,000  Level Houston Center
05:53PM 30.5281 -87.8069 265° West 364 419 36,000  Level Houston Center
05:54PM 30.5208 -87.9214 266° West 359 413 36,000  Level Houston Center
05:55PM 30.5114 -88.0347 265° West 354 407 36,000  Level Houston Center
05:56PM 30.5031 -88.1472 265° West 350 403 36,000  Level Houston Center
05:57PM 30.4939 -88.2578 265° West 345 397 36,000  Level Houston Center
05:58PM 30.4858 -88.3694 265° West 346 398 36,000  Level Houston Center
05:59PM 30.4778 -88.4794 265° West 342 394 36,000  Level Houston Center
06:00PM 30.4667 -88.6125 264° West 344 396 36,000  Level Houston Center
06:01PM 30.4581 -88.7228 265° West 343 395 36,000  Level Houston Center
06:02PM 30.4494 -88.8328 265° West 342 394 36,000  Level Houston Center
06:03PM 30.4394 -88.9536 265° West 347 399 36,000  Level Houston Center
06:04PM 30.4314 -89.0631 265° West 343 395 36,000  Level Houston Center
06:05PM 30.4225 -89.1736 265° West 345 397 36,000  Level Houston Center
06:06PM 30.4083 -89.2844 262° West 348 400 36,000  Level Houston Center
06:07PM 30.3703 -89.3878 247° West 349 402 36,000  Level Houston Center
06:08PM 30.3258 -89.5156 248° West 354 407 36,000  Level Houston Center
06:09PM 30.2886 -89.6211 248° West 353 406 36,000  Level Houston Center
06:10PM 30.2478 -89.7286 246° West 358 412 36,000  Level Houston Center
06:11PM 30.2097 -89.8389 248° West 361 415 36,000  Level Houston Center
06:12PM 30.1722 -89.9486 248° West 363 418 36,000  Level Houston Center
06:13PM 30.1342 -90.0581 248° West 365 420 36,000  Level Houston Center
06:14PM 30.0933 -90.1683 247° West 371 427 36,000  Level Houston Center
06:15PM 30.0536 -90.2792 248° West 373 429 36,000  Level Houston Center
06:16PM 30.0050 -90.4139 247° West 378 435 36,000  Level Houston Center
06:17PM 29.9661 -90.5261 248° West 377 434 36,000  Level Houston Center
06:18PM 29.9233 -90.6381 246° West 382 440 36,000  Level Houston Center
06:19PM 29.8842 -90.7506 248° West 379 436 36,000  Level Houston Center
06:21PM 29.8413 -90.8635 246° West  Level FlightAware Approximate
06:22PM 29.8017 -90.9753 246° West 383 441 36,000  Level Houston Center
06:23PM 29.7544 -91.1094 248° West 380 437 36,000  Level Houston Center
06:24PM 29.7283 -91.2258 256° West 377 434 36,000  Level Houston Center
06:25PM 29.7031 -91.3419 256° West 376 433 36,000  Level Houston Center
06:26PM 29.6781 -91.4583 256° West 376 433 36,000  Level Houston Center
06:27PM 29.6522 -91.5742 256° West 375 432 36,000  Level Houston Center
06:28PM 29.6289 -91.6908 257° West 376 433 36,000  Level Houston Center
06:29PM 29.5992 -91.8117 254° West 375 432 36,000  Level Houston Center
06:30PM 29.5703 -91.9508 257° West 374 430 36,000  Level Houston Center
06:31PM 29.5442 -92.0669 256° West 374 430 36,000  Level Houston Center
06:32PM 29.5181 -92.1839 256° West 376 433 36,000  Level Houston Center
06:33PM 29.4917 -92.2992 255° West 375 432 36,000  Level Houston Center
06:34PM 29.4661 -92.4150 256° West 374 430 36,000  Level Houston Center
06:35PM 29.4597 -92.5339 266° West 371 427 36,000  Level Houston Center
06:36PM 29.4664 -92.6747 273° West 369 425 36,000  Level Houston Center
06:37PM 29.4719 -92.7928 273° West 370 426 36,000  Level Houston Center
06:38PM 29.4778 -92.9108 273° West 370 426 36,000  Level Houston Center
06:39PM 29.4822 -93.0281 273° West 369 425 36,000  Level Houston Center
06:40PM 29.4883 -93.1428 274° West 363 418 36,000 -240 Level Houston Center
06:41PM 29.4925 -93.2572 272° West 360 414 35,600 -1,260 Descending Houston Center
06:42PM 29.4983 -93.3972 273° West 365 420 33,400 -2,280 Descending Houston Center
06:43PM 29.5028 -93.5192 272° West 379 436 30,900 -2,820 Descending Houston Center
06:44PM 29.5075 -93.6408 273° West 382 440 27,600 -2,880 Descending Houston Center
06:45PM 29.5117 -93.7592 272° West 373 429 25,000 -2,940 Descending Houston Center
06:46PM 29.5158 -93.8736 272° West 361 415 21,600 -3,660 Descending Houston Center
06:47PM 29.5194 -93.9889 272° West 369 425 18,000 -3,540 Descending Houston Center
06:48PM 29.5236 -94.0917 273° West 362 417 15,500 -2,580 Descending Houston Center
06:48PM 29.5250 -94.1056 277° West 359 413 15,000 -2,220 Descending Houston Center
06:49PM 29.5278 -94.1969 272° West 342 394 13,300 -1,800 Descending Houston Center
06:49PM 29.5283 -94.2208 272° West 345 397 13,200 -300 Descending Houston Center
06:50PM 29.5317 -94.3189 272° West 350 403 13,000 -120 Descending Houston Center
06:50PM 29.5383 -94.3528 283° West 346 398 13,100 -900 Climbing Houston Center
06:51PM 29.5672 -94.4225 295° West 350 403 12,100 -1,380 Descending Houston Center
06:52PM 29.5794 -94.4522 295° West 347 399 11,700 -1,560 Descending Houston Center
06:52PM 29.6083 -94.5206 296° West 353 406 10,500 -1,500 Descending Houston Center
06:53PM 29.6228 -94.5528 297° West 351 404 10,200 -540 Descending Houston Center
06:53PM 29.6522 -94.6256 295° West 340 391 10,000 -240 Descending Houston Center
06:54PM 29.6639 -94.6511 298° West 344 396 10,000 -120 Level Houston Center
06:54PM 29.6928 -94.7192 296° West 317 365 9,900 -240 Descending Houston Center
06:55PM 29.7025 -94.7397 299° West 310 357 9,800 -840 Descending Houston Center
06:55PM 29.7258 -94.7992 294° West 261 300 9,100 -1,080 Descending Houston Center
06:56PM 29.7417 -94.8331 298° West 272 313 8,700 -1,020 Descending Houston Center
06:56PM 29.7633 -94.8836 296° West 273 314 8,100 -1,020 Descending Houston Center
06:57PM 29.7747 -94.9108 296° West 273 314 7,700 -1,020 Descending Houston Center
06:57PM 29.7936 -94.9592 294° West 265 305 7,100 -1,020 Descending Houston Center
06:58PM 29.8061 -94.9858 298° West 265 305 6,700 -1,080 Descending Houston Center
06:58PM 29.8261 -95.0372 294° West 269 310 6,000 -720 Descending Houston Center
06:59PM 29.8397 -95.0619 302° West 267 307 6,000  Level Houston Center
06:59PM 29.8611 -95.1194 293° West 267 307 6,000  Level Houston Center
07:00PM 29.8706 -95.1397 298° West 269 310 6,000  Level Houston Center
07:00PM 29.8958 -95.1997 296° West 275 316 6,000 60 Level Houston Center
07:01PM 29.9003 -95.2364 278° West 275 316 6,100 -120 Climbing Houston Center
07:01PM 29.8997 -95.2858 269° West 264 304 5,900  Descending Houston Center
07:02PM 29.9003 -95.3214 271° West 269 310 6,100 60 Climbing Houston Center
07:02PM 29.8994 -95.3753 269° West 271 312 6,000 -240 Descending Houston Center
07:03PM 29.9006 -95.4072 272° West 269 310 5,900  Descending Houston Center
07:03PM 29.8986 -95.4572 267° West 250 288 6,000  Climbing Houston Center
07:04PM 29.9014 -95.4883 276° West 258 297 5,900 -1,020 Descending Houston Center
07:04PM 29.9000 -95.5439 268° West 260 299 5,000 -1,200 Descending Houston Center
07:05PM 29.9108 -95.5675 298° West 255 293 4,700 -900 Descending Houston Center
07:05PM 29.9522 -95.5642 North 224 258 4,100 -1,260 Descending Houston Center
07:06PM 29.9772 -95.5428 37° Northeast 221 254 3,400 -1,080 Descending Houston Center
07:07PM 29.9919 -95.5136 60° Northeast 178 205 2,900 -1,080 Descending Houston Center
07:07PM 29.9939 -95.4894 85° East 195 224 2,300 -1,200 Descending Houston Center
07:08PM 29.9933 -95.4603 91° East 178 205 1,800 -900 Descending Houston Center
07:08PM 29.9933 -95.4328 90° East 182 209 1,400 -780 Descending Houston Center